ADDS METAR Data INFO
IDs: Format: Raw Decoded Include TAF

Data at: 1017 UTC 14 Dec 2017

KRUG 141015Z AUTO 31006KT 10SM -UP OVC026 M02/M02 A2995 RMK AO2
KRUG 140955Z AUTO 30006KT 10SM OVC026 M02/M02 A2994 RMK AO2
KRUG 140935Z AUTO 30006KT 10SM BKN025 OVC050 M02/M02 A2994 RMK AO2
KRUG 140915Z AUTO 30005KT 10SM BKN028 OVC050 M02/M02 A2993 RMK AO2
KRUG 140855Z AUTO 30005KT 9SM -UP OVC026 M02/M02 A2993 RMK AO2
KRUG 140835Z AUTO 00000KT 10SM OVC026 M02/M02 A2993 RMK AO2
KRUG 140815Z AUTO 00000KT 10SM OVC025 M02/M02 A2993 RMK AO2
KRUG 140755Z AUTO 00000KT 10SM -UP OVC025 M02/M02 A2993 RMK AO2
KRUG 140735Z AUTO 00000KT 10SM BKN027 OVC055 M02/M02 A2992 RMK AO2
KRUG 140715Z AUTO 22003KT 10SM OVC055 M03/M02 A2992 RMK AO2
KRUG 140655Z AUTO 18004KT 10SM FEW031 OVC055 M03/M03 A2992 RMK AO2
KRUG 140635Z AUTO 19003KT 10SM BKN031 OVC055 M03/M03 A2993 RMK AO2
KRUG 140615Z AUTO 17003KT 10SM OVC031 M03/M02 A2993 RMK AO2
KRUG 140555Z AUTO 00000KT 10SM OVC031 M03/M02 A2993 RMK AO2
KRUG 140535Z AUTO 00000KT 10SM FEW021 OVC030 M02/M02 A2994 RMK AO2
KRUG 140515Z AUTO 23003KT 10SM OVC030 M02/M02 A2994 RMK AO2
KRUG 140455Z AUTO 00000KT 10SM OVC032 M03/M02 A2994 RMK AO2
KRUG 140435Z AUTO 22004KT 10SM OVC033 M03/M03 A2994 RMK AO2
KRUG 140415Z AUTO 00000KT 10SM OVC033 M02/M02 A2994 RMK AO2
KRUG 140355Z AUTO 00000KT 10SM OVC033 M02/M02 A2994 RMK AO2
KRUG 140335Z AUTO 00000KT 10SM OVC032 M02/M02 A2994 RMK AO2
KRUG 140315Z AUTO 00000KT 10SM OVC031 M02/M03 A2994 RMK AO2
KRUG 140255Z AUTO 35003KT 10SM OVC032 M02/M03 A2994 RMK AO2
KRUG 140235Z AUTO 32003KT 10SM OVC033 M02/M03 A2994 RMK AO2
KRUG 140215Z AUTO 03004KT 10SM OVC032 M02/M02 A2995 RMK AO2
KRUG 140155Z AUTO 36005KT 10SM BKN029 OVC033 M02/M02 A2995 RMK AO2
KRUG 140135Z AUTO 36006KT 9SM SCT017 BKN022 OVC032 M02/M02 A2995 RMK AO2
KRUG 140115Z AUTO 01006KT 7SM FEW012 BKN017 OVC036 M02/M02 A2995 RMK AO2
KRUG 140055Z AUTO 02007KT 10SM OVC036 M02/M02 A2995 RMK AO2
KRUG 140035Z AUTO 02007KT 10SM FEW018 FEW028 OVC034 M02/M02 A2994 RMK AO2
KRUG 140015Z AUTO 01007KT 10SM SCT017 BKN022 OVC033 M02/M02 A2994 RMK AO2
KRUG 132355Z AUTO 02008KT 10SM BKN022 OVC033 M01/M02 A2994 RMK AO2
KRUG 132335Z AUTO 01008G14KT 9SM FEW017 SCT025 OVC034 M01/M02 A2993 RMK AO2
KRUG 132315Z AUTO 31013KT 10SM OVC036 00/M02 A2992 RMK AO2
KRUG 132255Z AUTO 31014KT 10SM OVC038 00/M02 A2991 RMK AO2
KRUG 132235Z AUTO 31015KT 10SM FEW024 OVC041 00/M02 A2991 RMK AO2
KRUG 132215Z AUTO 31013KT 10SM FEW024 FEW031 OVC041 00/M02 A2991 RMK AO2
KRUG 132155Z AUTO 31009KT 10SM FEW020 FEW026 OVC042 00/M01 A2990 RMK AO2
KRUG 132135Z AUTO 32013KT 9SM SCT020 BKN025 OVC041 M00/M01 A2989 RMK AO2
KRUG 132115Z AUTO 32015KT 6SM BR SCT019 BKN025 OVC042 00/M01 A2989 RMK AO2
KRUG 132055Z AUTO 32014G21KT 9SM FEW019 BKN026 OVC042 00/M01 A2988 RMK AO2
KRUG 132035Z AUTO 32018G23KT 10SM SCT027 BKN036 OVC044 01/M03 A2988 RMK AO2
KRUG 132015Z AUTO 33016KT 10SM SCT038 OVC044 02/M04 A2987 RMK AO2
KRUG 131955Z AUTO 33019KT 10SM OVC039 01/M04 A2986 RMK AO2
KRUG 131935Z AUTO 32018KT 10SM OVC037 01/M04 A2987 RMK AO2
KRUG 131915Z AUTO 33020G28KT 10SM OVC038 01/M05 A2987 RMK AO2
KRUG 131855Z AUTO 34020KT 10SM OVC037 01/M05 A2987 RMK AO2
KRUG 131835Z AUTO 34017G23KT 10SM OVC034 01/M04 A2987 RMK AO2
KRUG 131815Z AUTO 33019G28KT 10SM BKN030 OVC036 01/M04 A2986 RMK AO2
KRUG 131755Z AUTO 34017G24KT 10SM OVC030 01/M04 A2986 RMK AO2
KRUG 131735Z AUTO 33017G22KT 10SM OVC030 01/M03 A2986 RMK AO2
KRUG 131715Z AUTO 33016G22KT 10SM BKN025 OVC030 01/M03 A2985 RMK AO2
KRUG 131655Z AUTO 33017G22KT 10SM OVC022 01/M02 A2985 RMK AO2
KRUG 131635Z AUTO 32017KT 10SM OVC022 01/M02 A2984 RMK AO2
KRUG 131615Z AUTO 32019KT 10SM OVC021 01/M02 A2984 RMK AO2
KRUG 131555Z AUTO 32020KT 10SM OVC021 01/M02 A2982 RMK AO2
KRUG 131535Z AUTO 32013G22KT 10SM OVC022 01/M01 A2982 RMK AO2
KRUG 131515Z AUTO 32019G24KT 10SM OVC022 01/M01 A2982 RMK AO2
KRUG 131455Z AUTO 32017KT 10SM OVC022 01/M01 A2980 RMK AO2
KRUG 131435Z AUTO 32014KT 10SM OVC022 01/M01 A2980 RMK AO2
KRUG 131415Z AUTO 34021G29KT 10SM OVC023 01/M02 A2978 RMK AO2
KRUG 131355Z AUTO 33020G27KT 10SM OVC022 01/M01 A2978 RMK AO2
KRUG 131335Z AUTO 33017G24KT 10SM OVC020 01/M01 A2977 RMK AO2
KRUG 131315Z AUTO 34019G26KT 10SM OVC021 01/M01 A2977 RMK AO2
KRUG 131255Z AUTO 34021G27KT 10SM OVC020 01/M01 A2976 RMK AO2
KRUG 131235Z AUTO 33017G23KT 10SM OVC018 01/M01 A2976 RMK AO2
KRUG 131215Z AUTO 32014G23KT 10SM OVC018 01/M01 A2975 RMK AO2
KRUG 131155Z AUTO 33015KT 10SM OVC018 01/M00 A2973 RMK AO2
KRUG 131135Z AUTO 32015G21KT 10SM OVC018 01/M00 A2972 RMK AO2
KRUG 131115Z AUTO 32018G24KT 10SM OVC018 01/M00 A2971 RMK AO2
KRUG 131055Z AUTO 32017G24KT 10SM OVC019 01/M00 A2971 RMK AO2
KRUG 131035Z AUTO 32020KT 10SM OVC020 00/M00 A2970 RMK AO2
KRUG 131015Z AUTO 31017KT 10SM OVC020 00/M00 A2968 RMK AO2
KRUG 130955Z AUTO 31016G22KT 10SM BKN020 00/M00 A2967 RMK AO2
KRUG 130935Z AUTO 31018KT 10SM CLR 00/M00 A2965 RMK AO2
KRUG 130915Z AUTO 31016KT 10SM CLR 00/M00 A2964 RMK AO2
KRUG 130855Z AUTO 31016KT 10SM CLR 01/00 A2963 RMK AO2
KRUG 130835Z AUTO 31018G25KT 10SM CLR 01/00 A2961 RMK AO2
KRUG 130815Z AUTO 32020KT 10SM CLR 01/01 A2960 RMK AO2
KRUG 130755Z AUTO 31021G26KT 10SM CLR 01/01 A2958 RMK AO2
KRUG 130735Z AUTO 31020G26KT 10SM FEW120 02/01 A2957 RMK AO2
KRUG 130715Z AUTO 32018G24KT 10SM FEW080 BKN100 BKN120 02/02 A2956 RMK AO2
KRUG 130655Z AUTO 31019G24KT 10SM FEW046 BKN075 OVC090 02/02 A2955 RMK AO2
KRUG 130635Z AUTO 32020G25KT 10SM FEW032 BKN042 OVC055 02/02 A2955 RMK AO2
KRUG 130615Z AUTO 31018G25KT 7SM -RA SCT030 BKN034 OVC055 02/02 A2953 RMK AO2
KRUG 130555Z AUTO 31020KT 10SM FEW035 BKN043 OVC065 02/02 A2955 RMK AO2
KRUG 130535Z AUTO 32022G29KT 6SM -RA FEW029 SCT034 OVC044 03/02 A2954 RMK AO2
KRUG 130515Z AUTO 31018KT 7SM -DZ FEW031 BKN045 OVC050 03/00 A2951 RMK AO2
KRUG 130455Z AUTO 31021G28KT 10SM FEW030 BKN055 OVC075 04/M01 A2950 RMK AO2
KRUG 130435Z AUTO 31020G26KT 10SM FEW060 SCT070 OVC085 04/M02 A2949 RMK AO2
KRUG 130415Z AUTO 31021KT 10SM BKN085 OVC110 05/M03 A2948 RMK AO2
KRUG 130355Z AUTO 30020KT 10SM BKN090 OVC110 05/M03 A2947 RMK AO2
KRUG 130335Z AUTO 29017G22KT 10SM OVC090 05/M04 A2947 RMK AO2
KRUG 130315Z AUTO 27013KT 10SM SCT090 04/M04 A2948 RMK AO2
KRUG 130255Z AUTO 27010KT 10SM CLR 03/M04 A2948 RMK AO2
KRUG 130235Z AUTO 26008KT 10SM CLR 02/M04 A2949 RMK AO2
KRUG 130215Z AUTO 26006KT 10SM CLR 01/M04 A2950 RMK AO2
KRUG 130155Z AUTO 25008KT 10SM CLR 01/M04 A2951 RMK AO2
KRUG 130135Z AUTO 24009KT 10SM CLR 01/M04 A2952 RMK AO2
KRUG 130115Z AUTO 25008KT 10SM CLR 02/M04 A2954 RMK AO2
KRUG 130055Z AUTO 25010KT 10SM CLR 03/M03 A2956 RMK AO2
KRUG 130035Z AUTO 25012KT 10SM CLR 03/M03 A2957 RMK AO2
KRUG 130015Z AUTO 24012KT 10SM CLR 03/M03 A2958 RMK AO2
KRUG 122355Z AUTO 25011KT 10SM FEW016 04/M03 A2960 RMK AO2
KRUG 122335Z AUTO 26011KT 10SM FEW016 03/M03 A2961 RMK AO2
KRUG 122315Z AUTO 25010KT 10SM CLR 04/M03 A2962 RMK AO2
KRUG 122255Z AUTO 26009KT 10SM CLR 03/M03 A2963 RMK AO2
KRUG 122235Z AUTO 25007KT 10SM CLR 05/M03 A2963 RMK AO2